Time;durP1;ratioP1;P1;durP2;ratioP2;P2;SDS_P1;SDS_P2;PMS_P1;PMS_P2;Temp;Humidity;BMP_temperature;BMP_pressure;BME280_temperature;BME280_humidity;BME280_pressure;Samples;Min_cycle;Max_cycle;Signal;HPM_P1;HPM_P2
2023/10/27 00:02:27;;;;;;;6.50;2.87;;;;;;;13.37;54.99;97672.03;10498868;28;20326;-68
2023/10/27 00:07:29;;;;;;;5.77;2.80;;;;;;;13.77;54.22;97649.28;10494141;28;20726;-68
2023/10/27 00:12:31;;;;;;;4.70;2.83;;;;;;;13.74;54.62;97633.66;10503690;28;20280;-68
2023/10/27 00:17:32;;;;;;;5.97;2.97;;;;;;;13.48;55.53;97604.72;10509019;28;20316;-68
2023/10/27 00:22:35;;;;;;;7.13;3.20;;;;;;;13.39;54.77;97680.66;10505315;28;20230;-68
2023/10/27 00:27:37;;;;;;;8.53;3.37;;;;;;;13.49;54.89;97643.13;10503028;28;20450;-68
2023/10/27 00:32:38;;;;;;;6.60;2.77;;;;;;;12.28;57.42;97722.72;10504901;28;20354;-68
2023/10/27 00:37:41;;;;;;;4.47;2.87;;;;;;;12.75;56.59;97655.25;10507796;28;20230;-68
2023/10/27 00:42:42;;;;;;;7.50;2.80;;;;;;;12.47;56.04;97804.59;10502561;28;20325;-68
2023/10/27 00:47:44;;;;;;;6.27;3.20;;;;;;;12.85;56.20;97666.09;10499664;28;20358;-68
2023/10/27 00:52:46;;;;;;;8.87;3.50;;;;;;;12.26;57.71;97709.56;10504696;28;20233;-68
2023/10/27 00:57:49;;;;;;;6.93;3.33;;;;;;;12.82;57.03;97612.13;10501334;28;20224;-68
2023/10/27 01:02:51;;;;;;;5.33;3.27;;;;;;;12.03;57.64;97734.72;10501209;28;20308;-68
2023/10/27 01:07:53;;;;;;;7.30;3.23;;;;;;;13.45;54.62;97671.59;10499714;28;20227;-68
2023/10/27 01:12:55;;;;;;;4.97;3.00;;;;;;;11.22;59.69;97724.97;10496366;28;20231;-68
2023/10/27 01:17:56;;;;;;;5.50;3.27;;;;;;;12.33;57.47;97642.34;10494126;28;20320;-68
2023/10/27 01:23:02;;;;;;;7.40;3.20;;;;;;;12.08;57.58;97677.66;10500688;28;20218;-67
2023/10/27 01:28:06;;;;;;;5.13;3.47;;;;;;;11.57;59.11;97638.25;10495281;28;20314;-68
2023/10/27 01:33:08;;;;;;;5.47;3.57;;;;;;;12.45;57.68;97580.53;10499423;28;20322;-67
2023/10/27 01:38:09;;;;;;;4.67;3.00;;;;;;;12.32;58.32;97560.28;10498290;28;20230;-68
2023/10/27 01:43:11;;;;;;;6.90;3.53;;;;;;;12.32;58.22;97536.97;10498613;28;20226;-67
2023/10/27 01:48:19;;;;;;;6.07;3.43;;;;;;;12.37;56.92;97656.91;10496346;28;20233;-68
2023/10/27 01:53:21;;;;;;;6.10;4.17;;;;;;;12.06;58.49;97561.84;10478994;28;20676;-67
2023/10/27 01:58:27;;;;;;;4.13;3.27;;;;;;;11.77;59.24;97560.09;10491016;28;20393;-67
2023/10/27 02:03:30;;;;;;;4.03;3.50;;;;;;;12.15;58.22;97557.69;10496393;28;20279;-68
2023/10/27 02:08:35;;;;;;;5.87;3.50;;;;;;;12.50;57.74;97502.84;10502184;28;20388;-68
2023/10/27 02:13:37;;;;;;;3.50;3.00;;;;;;;11.81;59.19;97539.81;10493794;28;21506;-67
2023/10/27 02:18:38;;;;;;;4.37;3.10;;;;;;;12.50;58.26;97458.06;10496827;28;20231;-67
2023/10/27 02:23:40;;;;;;;5.83;3.10;;;;;;;11.97;58.26;97527.41;10492942;28;20224;-68
2023/10/27 02:28:42;;;;;;;4.33;3.17;;;;;;;12.25;57.29;97552.44;10487857;28;20227;-67
2023/10/27 02:33:43;;;;;;;4.93;2.90;;;;;;;12.48;57.02;97547.88;10492946;28;20265;-67
2023/10/27 02:38:45;;;;;;;3.73;2.83;;;;;;;12.51;56.25;97601.03;10492826;28;20743;-68
2023/10/27 02:43:47;;;;;;;4.47;3.03;;;;;;;12.81;55.61;97594.41;10491892;28;20238;-67
2023/10/27 02:48:50;;;;;;;5.17;3.43;;;;;;;12.26;57.53;97526.44;10490734;28;20250;-68
2023/10/27 02:53:52;;;;;;;4.00;2.60;;;;;;;12.22;57.47;97493.94;10489978;28;20233;-67
2023/10/27 02:58:53;;;;;;;4.57;3.00;;;;;;;11.52;58.83;97570.41;10489749;28;20231;-67
2023/10/27 03:03:55;;;;;;;5.77;3.10;;;;;;;11.73;58.12;97622.47;10491226;28;20296;-68
2023/10/27 03:08:57;;;;;;;5.60;2.97;;;;;;;13.34;55.36;97458.47;10496259;28;20387;-67
2023/10/27 03:13:58;;;;;;;5.03;2.57;;;;;;;11.28;57.95;97733.91;10494167;28;20329;-67
2023/10/27 03:19:00;;;;;;;5.60;2.97;;;;;;;13.04;55.98;97467.91;10488635;28;20271;-68
2023/10/27 03:24:03;;;;;;;4.40;2.77;;;;;;;12.40;56.18;97618.88;10491819;28;20226;-68
2023/10/27 03:29:05;;;;;;;8.37;2.77;;;;;;;12.67;56.39;97513.47;10493176;28;20326;-67
2023/10/27 03:34:06;;;;;;;6.00;2.70;;;;;;;10.91;60.00;97581.72;10493464;28;20756;-67
2023/10/27 03:39:10;;;;;;;4.23;2.80;;;;;;;11.95;58.01;97566.25;10494540;28;20306;-67
2023/10/27 03:44:12;;;;;;;7.90;3.07;;;;;;;11.50;59.42;97551.91;10474825;28;20280;-67
2023/10/27 03:49:13;;;;;;;5.23;2.70;;;;;;;11.95;58.85;97494.69;10484817;28;20258;-67
2023/10/27 03:54:15;;;;;;;4.23;2.70;;;;;;;11.76;58.48;97523.66;10499306;28;20722;-67
2023/10/27 03:59:19;;;;;;;4.27;3.20;;;;;;;12.04;58.08;97527.22;10499433;28;20258;-67
2023/10/27 04:04:21;;;;;;;6.17;3.30;;;;;;;11.29;59.79;97593.63;10497389;28;20227;-67
2023/10/27 04:09:22;;;;;;;5.23;3.30;;;;;;;11.88;58.30;97536.13;10490893;28;20241;-67
2023/10/27 04:14:25;;;;;;;8.60;3.80;;;;;;;11.50;58.98;97559.16;10494112;28;20606;-67
2023/10/27 04:19:27;;;;;;;6.20;3.07;;;;;;;11.62;58.61;97587.50;10508137;22;20250;-36
2023/10/27 04:24:29;;;;;;;3.63;3.00;;;;;;;12.72;56.37;97514.34;10526843;28;20226;-36
2023/10/27 04:29:31;;;;;;;4.33;3.10;;;;;;;11.60;58.60;97586.09;10529698;28;20249;-35
2023/10/27 04:34:33;;;;;;;4.73;3.37;;;;;;;12.02;58.03;97529.34;10528449;22;20237;-35
2023/10/27 04:39:35;;;;;;;6.70;3.60;;;;;;;11.73;58.32;97569.69;10508317;28;20598;-35
2023/10/27 04:44:37;;;;;;;5.13;3.07;;;;;;;11.88;57.89;97547.69;10494741;28;20227;-35
2023/10/27 04:49:38;;;;;;;3.00;2.80;;;;;;;12.96;56.69;97443.41;10476366;28;20215;-36
2023/10/27 04:54:42;;;;;;;4.20;3.00;;;;;;;11.28;59.06;97634.84;10488757;28;20354;-36
2023/10/27 04:59:45;;;;;;;3.87;3.10;;;;;;;11.59;59.05;97573.72;10491870;28;20227;-35
2023/10/27 05:04:47;;;;;;;5.47;3.10;;;;;;;11.50;59.81;97537.72;10491647;28;20227;-35
2023/10/27 05:09:51;;;;;;;2.93;2.63;;;;;;;10.82;60.73;97600.03;10489998;28;20196;-35
2023/10/27 05:14:54;;;;;;;3.40;2.50;;;;;;;10.39;62.00;97547.84;10491641;28;20442;-35
2023/10/27 05:19:56;;;;;;;2.80;2.33;;;;;;;10.28;62.61;97540.69;10488295;28;20207;-35
2023/10/27 05:24:58;;;;;;;3.07;2.77;;;;;;;10.17;63.10;97520.94;10492305;28;20255;-35
2023/10/27 05:30:01;;;;;;;2.90;2.63;;;;;;;10.65;62.60;97438.69;10488165;28;22487;-35
2023/10/27 05:35:03;;;;;;;4.53;2.63;;;;;;;9.18;64.19;97673.78;10491052;28;20223;-35
2023/10/27 05:40:05;;;;;;;3.07;2.77;;;;;;;9.22;64.24;97642.94;10486731;28;20242;-35
2023/10/27 05:45:08;;;;;;;4.13;3.00;;;;;;;10.19;62.66;97507.34;10491448;28;20464;-35
2023/10/27 05:50:10;;;;;;;3.67;3.37;;;;;;;10.58;62.13;97452.22;10488964;28;20249;-35
2023/10/27 05:55:12;;;;;;;3.03;2.83;;;;;;;10.83;61.68;97475.94;10488424;28;20231;-35
2023/10/27 06:00:14;;;;;;;3.27;3.07;;;;;;;11.09;59.81;97582.59;10491044;28;20235;-35
2023/10/27 06:05:16;;;;;;;3.60;3.27;;;;;;;11.35;59.51;97541.78;10481874;28;20231;-35
2023/10/27 06:10:18;;;;;;;5.30;3.37;;;;;;;11.17;59.68;97593.72;10489524;28;20233;-35
2023/10/27 06:15:20;;;;;;;3.97;2.73;;;;;;;11.02;60.68;97574.72;10487899;28;20219;-35
2023/10/27 06:20:22;;;;;;;4.43;3.17;;;;;;;10.43;61.42;97669.31;10487438;28;20746;-36
2023/10/27 06:25:25;;;;;;;3.57;2.50;;;;;;;11.07;59.40;97663.94;10488279;28;20224;-35
2023/10/27 06:30:27;;;;;;;4.60;3.10;;;;;;;10.78;60.32;97676.50;10484002;28;20237;-35
2023/10/27 06:35:30;;;;;;;4.87;2.60;;;;;;;11.53;59.67;97585.44;10476977;28;20277;-35
2023/10/27 06:40:32;;;;;;;3.17;2.70;;;;;;;11.69;59.31;97597.22;10473840;28;20309;-35
2023/10/27 06:45:34;;;;;;;3.50;2.90;;;;;;;10.65;60.52;97740.91;10490584;28;20245;-35
2023/10/27 06:50:36;;;;;;;4.17;2.40;;;;;;;10.98;59.63;97707.34;10483830;28;20223;-35
2023/10/27 06:55:38;;;;;;;2.70;2.50;;;;;;;11.09;59.45;97684.28;10485174;28;20604;-35
2023/10/27 07:00:40;;;;;;;2.70;2.50;;;;;;;11.20;59.33;97668.19;10479754;28;20262;-36
2023/10/27 07:05:41;;;;;;;2.37;2.13;;;;;;;10.84;60.68;97656.78;10481654;28;20242;-35
2023/10/27 07:10:45;;;;;;;3.20;2.90;;;;;;;11.97;58.04;97628.47;10459850;28;20211;-36
2023/10/27 07:15:47;;;;;;;2.97;2.03;;;;;;;11.61;59.14;97633.25;10483969;28;20231;-35
2023/10/27 07:20:49;;;;;;;2.43;2.30;;;;;;;12.04;57.92;97636.34;10490963;28;20266;-35
2023/10/27 07:25:51;;;;;;;3.30;2.40;;;;;;;11.83;57.68;97751.25;10495210;28;20229;-35
2023/10/27 07:30:53;;;;;;;4.23;2.60;;;;;;;11.86;58.29;97667.72;10497837;28;20284;-35
2023/10/27 07:35:54;;;;;;;2.40;2.27;;;;;;;11.94;57.20;97745.00;10490433;28;20248;-35
2023/10/27 07:40:57;;;;;;;2.20;2.10;;;;;;;11.35;59.11;97733.75;10492973;28;20514;-35
2023/10/27 07:46:01;;;;;;;2.90;2.10;;;;;;;11.26;58.78;97794.91;10488845;28;20303;-35
2023/10/27 07:51:03;;;;;;;2.07;1.97;;;;;;;11.09;58.01;97891.19;10484506;28;20653;-35
2023/10/27 07:56:05;;;;;;;1.63;1.50;;;;;;;11.74;57.07;97858.03;10469179;28;20223;-35
2023/10/27 08:01:06;;;;;;;2.20;2.00;;;;;;;11.43;57.82;97849.34;10491330;28;20239;-35
2023/10/27 08:06:08;;;;;;;2.03;1.93;;;;;;;11.96;56.93;97843.94;10492792;28;20321;-35
2023/10/27 08:11:19;;;;;;;1.80;1.70;;;;;;;12.31;56.86;97800.00;10474746;28;20261;-35
2023/10/27 08:16:21;;;;;;;2.17;1.90;;;;;;;11.43;58.14;97912.81;10490201;28;20238;-35
2023/10/27 08:21:23;;;;;;;2.13;2.03;;;;;;;11.81;57.41;97900.72;10474504;28;20238;-35
2023/10/27 08:26:24;;;;;;;1.87;1.77;;;;;;;11.93;58.17;97837.19;10499004;28;20223;-35
2023/10/27 08:31:26;;;;;;;9.43;3.80;;;;;;;12.72;55.34;97863.19;10496931;28;20254;-35
2023/10/27 08:36:28;;;;;;;2.30;2.17;;;;;;;11.75;58.21;97867.69;10493989;28;20218;-36
2023/10/27 08:41:30;;;;;;;2.10;2.00;;;;;;;12.06;58.42;97841.44;10491556;28;20235;-35
2023/10/27 08:46:32;;;;;;;2.60;2.40;;;;;;;11.91;58.39;97927.75;10492490;28;20676;-35
2023/10/27 08:51:35;;;;;;;2.40;2.20;;;;;;;12.14;58.39;97864.34;10492494;28;20246;-35
2023/10/27 08:56:37;;;;;;;2.53;2.00;;;;;;;12.87;57.15;97814.31;10481015;28;20319;-35
2023/10/27 09:01:41;;;;;;;2.27;2.10;;;;;;;11.99;57.83;97991.69;10486718;28;20242;-35
2023/10/27 09:06:43;;;;;;;2.13;1.93;;;;;;;11.96;58.88;97905.56;10494731;28;20760;-35
2023/10/27 09:11:47;;;;;;;2.10;2.00;;;;;;;12.88;57.10;97869.59;10496476;28;20750;-35
2023/10/27 09:16:50;;;;;;;2.20;2.10;;;;;;;12.09;58.91;97917.88;10491514;28;20226;-35
2023/10/27 09:21:53;;;;;;;3.33;2.37;;;;;;;12.49;57.50;97944.66;10492860;28;20600;-36
2023/10/27 09:26:57;;;;;;;2.47;2.27;;;;;;;12.88;57.05;97923.28;10498373;28;20237;-35
2023/10/27 09:31:59;;;;;;;2.30;2.20;;;;;;;12.45;57.81;98017.78;10482695;28;20243;-35
2023/10/27 09:37:01;;;;;;;3.03;2.33;;;;;;;12.22;59.65;97951.66;10495686;28;20579;-35
2023/10/27 09:42:06;;;;;;;2.73;2.40;;;;;;;12.13;60.06;97954.72;10497264;28;20246;-36
2023/10/27 09:47:24;;;;;;;2.70;2.27;;;;;;;12.22;60.20;97954.34;10487075;28;20583;-36
2023/10/27 09:52:28;;;;;;;2.57;2.37;;;;;;;14.07;57.20;97817.31;10486173;28;20608;-35
2023/10/27 09:57:31;;;;;;;2.97;2.30;;;;;;;13.50;56.46;97950.22;10492213;28;20226;-35
2023/10/27 10:02:35;;;;;;;2.33;2.13;;;;;;;12.17;58.88;98046.22;10478859;28;20315;-35
2023/10/27 10:07:42;;;;;;;4.53;2.80;;;;;;;13.49;57.90;97890.31;10499294;28;20252;-35
2023/10/27 10:13:12;;;;;;;2.93;2.37;;;;;;;13.05;57.13;98011.06;10478334;28;20227;-34
2023/10/27 10:18:20;;;;;;;3.93;2.20;;;;;;;13.00;57.22;97990.31;10489674;28;20238;-37
2023/10/27 10:23:38;;;;;;;4.20;2.20;;;;;;;13.43;56.27;98020.25;10493860;28;20239;-37
2023/10/27 10:28:41;;;;;;;5.33;2.27;;;;;;;14.75;54.66;97888.38;10490885;28;20226;-35
2023/10/27 10:33:45;;;;;;;2.47;1.73;;;;;;;15.40;53.15;97873.94;10473917;28;20242;-36
2023/10/27 10:38:55;;;;;;;4.60;2.63;;;;;;;14.32;54.60;97949.34;10494459;28;20326;-35
2023/10/27 10:44:13;;;;;;;5.27;2.20;;;;;;;13.19;55.50;98041.09;10489187;28;20327;-36
2023/10/27 10:49:27;;;;;;;5.60;2.73;;;;;;;13.03;54.88;98077.63;10485044;28;20231;-36
2023/10/27 10:54:33;;;;;;;5.10;1.93;;;;;;;13.31;53.56;98140.44;10497841;28;20320;-35
2023/10/27 10:59:38;;;;;;;5.30;2.33;;;;;;;14.16;53.38;98049.78;10493360;28;20303;-35
2023/10/27 11:06:10;;;;;;;3.63;2.43;;;;;;;9.59;64.59;97937.34;10429404;27;21454;-68
2023/10/27 11:11:19;;;;;;;8.97;2.43;;;;;;;10.42;63.32;97934.25;10350459;28;20260;-69
2023/10/27 11:16:22;;;;;;;4.03;2.53;;;;;;;10.52;63.12;97962.06;10363266;28;20720;-66
2023/10/27 11:21:27;;;;;;;3.77;2.50;;;;;;;10.40;62.52;97973.78;10363806;28;20361;-67
2023/10/27 11:26:38;;;;;;;5.10;2.27;;;;;;;11.06;62.37;97871.06;10355713;28;20679;-67
2023/10/27 11:31:41;;;;;;;3.97;2.20;;;;;;;11.44;61.41;97871.59;10363626;28;20249;-67
2023/10/27 11:37:01;;;;;;;2.90;2.27;;;;;;;11.15;63.56;97892.91;10366020;28;20961;-67
2023/10/27 11:42:04;;;;;;;5.60;2.33;;;;;;;10.79;63.49;97878.75;10366578;28;20254;-69
2023/10/27 11:47:06;;;;;;;3.03;1.83;;;;;;;11.58;61.61;97858.75;10368275;28;20243;-67
2023/10/27 11:52:09;;;;;;;3.90;2.13;;;;;;;11.22;62.06;97946.34;10361178;28;20234;-67
2023/10/27 11:57:12;;;;;;;2.40;1.90;;;;;;;11.73;61.52;97885.06;10361105;28;20324;-67
2023/10/27 12:02:13;;;;;;;2.53;1.83;;;;;;;11.79;60.39;97870.69;10363090;28;20241;-66
2023/10/27 12:07:17;;;;;;;2.13;1.80;;;;;;;11.16;61.47;97920.53;10364053;28;20237;-67
2023/10/27 12:12:21;;;;;;;3.43;1.80;;;;;;;11.10;61.12;97943.66;10356985;28;20235;-67
2023/10/27 12:17:23;;;;;;;3.83;2.03;;;;;;;12.32;59.27;97923.13;10334435;28;20229;-67
2023/10/27 12:22:25;;;;;;;1.93;1.77;;;;;;;12.07;59.73;97912.75;10337661;28;20252;-67
2023/10/27 12:27:27;;;;;;;2.40;2.20;;;;;;;12.53;58.58;97910.91;10336262;28;20245;-67
2023/10/27 12:32:32;;;;;;;1.30;1.30;;;;;;;12.07;58.94;97971.75;10340097;28;21019;-67
2023/10/27 12:37:35;;;;;;;2.70;1.87;;;;;;;12.74;57.82;97898.66;10335068;28;20244;-67
2023/10/27 12:42:37;;;;;;;1.90;1.53;;;;;;;12.48;57.83;97908.13;10339076;28;20321;-67
2023/10/27 12:47:43;;;;;;;1.70;1.60;;;;;;;12.63;57.96;97979.22;10340603;28;20247;-67
2023/10/27 12:52:45;;;;;;;2.60;1.50;;;;;;;12.63;57.79;97984.59;10336791;28;20555;-67
2023/10/27 12:57:46;;;;;;;3.77;1.87;;;;;;;12.65;57.19;97980.59;10337912;28;20237;-66
2023/10/27 13:02:48;;;;;;;2.03;1.50;;;;;;;12.77;57.64;97958.25;10333528;28;20243;-67
2023/10/27 13:07:52;;;;;;;2.47;1.73;;;;;;;13.84;56.22;97862.25;10339009;28;20291;-67
2023/10/27 13:12:57;;;;;;;2.23;1.70;;;;;;;12.82;57.22;97988.69;10333221;28;20231;-67
2023/10/27 13:17:59;;;;;;;1.60;1.50;;;;;;;12.78;57.08;98010.88;10335189;28;20315;-67
2023/10/27 13:23:03;;;;;;;2.70;1.50;;;;;;;13.01;56.63;97980.38;10335832;28;20285;-67
2023/10/27 13:28:05;;;;;;;2.70;1.70;;;;;;;12.93;56.76;98019.19;10327907;28;20241;-67
2023/10/27 13:33:06;;;;;;;2.53;2.00;;;;;;;12.79;57.37;98026.75;10325481;28;20455;-67
2023/10/27 13:38:08;;;;;;;2.03;1.83;;;;;;;12.39;58.17;98058.97;10330911;28;20248;-67
2023/10/27 13:43:09;;;;;;;3.40;1.80;;;;;;;12.40;58.96;97989.00;10339971;28;20722;-67
2023/10/27 13:48:11;;;;;;;2.60;1.87;;;;;;;12.95;57.19;98016.28;10334630;28;20233;-66
2023/10/27 13:53:13;;;;;;;2.17;1.63;;;;;;;13.38;56.28;97999.53;10377353;28;20735;-66
2023/10/27 13:58:15;;;;;;;3.47;1.80;;;;;;;13.95;56.05;97965.31;10372393;28;20609;-67
2023/10/27 14:03:17;;;;;;;1.70;1.60;;;;;;;13.90;55.60;98008.28;10336022;28;20581;-67
2023/10/27 14:08:20;;;;;;;6.03;2.90;;;;;;;13.53;56.39;97998.09;10335167;28;20514;-67
2023/10/27 14:13:22;;;;;;;3.37;2.10;;;;;;;13.19;57.00;98049.16;10340747;28;20329;-66
2023/10/27 14:18:26;;;;;;;2.03;1.77;;;;;;;13.44;55.54;98091.75;10379684;28;20224;-67
2023/10/27 14:23:28;;;;;;;2.00;1.80;;;;;;;12.78;56.72;98116.38;10375528;28;20327;-65
2023/10/27 14:28:30;;;;;;;3.40;1.73;;;;;;;12.99;56.70;98065.72;10372294;28;20679;-70
2023/10/27 14:33:33;;;;;;;2.57;1.90;;;;;;;14.11;55.28;97995.94;10381761;28;20212;-68
2023/10/27 14:38:36;;;;;;;2.30;1.83;;;;;;;13.08;56.09;98080.41;10371664;28;20813;-67
2023/10/27 14:43:38;;;;;;;3.37;2.00;;;;;;;13.67;55.18;98080.81;10353442;28;20237;-67
2023/10/27 14:48:40;;;;;;;2.13;1.80;;;;;;;13.40;55.76;98021.59;10353149;28;20237;-67
2023/10/27 14:53:43;;;;;;;2.23;1.63;;;;;;;13.33;55.36;98076.53;10361480;28;20229;-67
2023/10/27 14:58:44;;;;;;;1.90;1.50;;;;;;;13.76;54.52;98058.91;10354883;28;20232;-66
2023/10/27 15:03:47;;;;;;;2.53;2.10;;;;;;;13.87;54.19;98033.81;10354868;28;20241;-66
2023/10/27 15:08:49;;;;;;;1.90;1.60;;;;;;;13.25;55.06;98077.72;10352705;28;20263;-68
2023/10/27 15:13:51;;;;;;;2.63;2.40;;;;;;;13.52;54.13;98063.69;10354783;28;20230;-68
2023/10/27 15:18:55;;;;;;;2.07;1.50;;;;;;;13.52;54.50;98069.84;10353720;28;20236;-67
2023/10/27 15:23:56;;;;;;;3.40;2.00;;;;;;;13.96;54.17;98018.03;10355336;28;20232;-66
2023/10/27 15:28:58;;;;;;;1.90;1.60;;;;;;;12.51;55.44;98202.78;10356886;28;20328;-68
2023/10/27 15:34:00;;;;;;;6.77;2.13;;;;;;;12.69;55.10;98207.19;10368912;28;20739;-66
2023/10/27 15:39:04;;;;;;;3.57;2.27;;;;;;;13.49;54.54;98089.16;10351201;28;20259;-67
2023/10/27 15:44:06;;;;;;;2.83;2.10;;;;;;;13.00;55.22;98113.00;10349348;28;20292;-69
2023/10/27 15:49:08;;;;;;;2.30;1.80;;;;;;;13.25;55.25;98080.41;10357170;28;20245;-70
2023/10/27 15:54:10;;;;;;;3.03;1.67;;;;;;;13.05;55.33;98073.63;10362688;28;20276;-69
2023/10/27 15:59:12;;;;;;;1.80;1.70;;;;;;;13.01;54.78;98131.56;10360864;28;20240;-70
2023/10/27 16:04:13;;;;;;;2.37;2.00;;;;;;;12.95;55.10;98137.88;10360760;28;20323;-70
2023/10/27 16:09:17;;;;;;;2.03;1.80;;;;;;;13.24;55.37;98025.06;10357836;28;20736;-68
2023/10/27 16:14:38;;;;;;;1.80;1.63;;;;;;;12.80;55.57;98076.69;10358848;28;20248;-69
2023/10/27 16:19:40;;;;;;;1.50;1.40;;;;;;;12.75;55.17;98065.84;10358714;28;20232;-70
2023/10/27 16:24:43;;;;;;;2.30;1.73;;;;;;;12.99;54.80;98052.31;10361543;23;20640;-34
2023/10/27 16:29:44;;;;;;;3.57;1.77;;;;;;;12.90;54.67;98071.50;10310353;28;20300;-34
2023/10/27 16:34:47;;;;;;;1.50;1.40;;;;;;;13.38;54.08;98021.03;10295131;28;20615;-36
2023/10/27 16:39:49;;;;;;;1.60;1.50;;;;;;;13.38;53.34;98081.97;10316978;28;20627;-35
2023/10/27 16:44:52;;;;;;;2.33;1.53;;;;;;;12.97;54.03;98110.81;10321218;28;20257;-35
2023/10/27 16:49:55;;;;;;;3.97;2.10;;;;;;;13.30;54.29;98010.69;10347875;28;20318;-35
2023/10/27 16:54:57;;;;;;;3.17;2.00;;;;;;;12.84;53.69;98106.53;10349117;28;20261;-35
2023/10/27 17:00:00;;;;;;;1.70;1.60;;;;;;;13.26;52.75;98074.81;10350496;28;20288;-35
2023/10/27 17:05:03;;;;;;;1.60;1.50;;;;;;;12.39;53.65;98159.03;10352049;28;20233;-36
2023/10/27 17:10:05;;;;;;;1.93;1.80;;;;;;;12.59;54.00;98110.38;10340583;28;20229;-36
2023/10/27 17:15:07;;;;;;;2.77;2.23;;;;;;;12.83;53.79;98081.56;10350496;28;20233;-35
2023/10/27 17:20:10;;;;;;;2.20;1.77;;;;;;;11.91;54.53;98171.66;10347766;28;20248;-35
2023/10/27 17:25:18;;;;;;;2.20;2.00;;;;;;;12.61;53.15;98158.44;10348081;28;20241;-35
2023/10/27 17:30:20;;;;;;;1.93;1.70;;;;;;;12.88;52.74;98123.81;10350033;28;21874;-36
2023/10/27 17:35:22;;;;;;;2.50;1.50;;;;;;;12.36;53.42;98173.72;10346020;28;20331;-36
2023/10/27 17:40:25;;;;;;;2.27;2.00;;;;;;;13.37;51.62;98091.91;10339337;28;20240;-35
2023/10/27 17:45:27;;;;;;;2.30;1.50;;;;;;;13.47;52.10;98070.59;10339088;28;20323;-35
2023/10/27 17:50:29;;;;;;;1.90;1.80;;;;;;;12.64;53.11;98147.25;10332144;28;20242;-35
2023/10/27 17:55:32;;;;;;;3.13;1.67;;;;;;;11.61;54.41;98271.66;10334161;28;20309;-35
2023/10/27 18:00:35;;;;;;;2.43;1.77;;;;;;;11.84;54.16;98204.97;10336929;28;20230;-35
2023/10/27 18:05:37;;;;;;;2.57;1.80;;;;;;;13.72;51.27;98061.28;10335648;28;20741;-35
2023/10/27 18:10:43;;;;;;;1.40;1.30;;;;;;;13.70;51.80;98071.47;10322659;28;20233;-35
2023/10/27 18:15:44;;;;;;;3.40;2.00;;;;;;;14.13;50.19;98104.06;10332348;28;20236;-35
2023/10/27 18:20:46;;;;;;;2.40;2.10;;;;;;;14.31;49.37;98144.13;10335701;28;20240;-35
2023/10/27 18:25:49;;;;;;;5.53;3.10;;;;;;;13.85;49.80;98241.06;10339021;28;20309;-35
2023/10/27 18:30:51;;;;;;;7.60;4.40;;;;;;;14.13;49.79;98182.88;10334584;28;20694;-36
2023/10/27 18:35:53;;;;;;;8.67;6.73;;;;;;;15.10;48.04;98132.16;10328037;28;20241;-36
2023/10/27 18:40:59;;;;;;;5.97;3.67;;;;;;;13.85;49.88;98253.66;10333745;28;20232;-37
2023/10/27 18:46:02;;;;;;;3.63;3.03;;;;;;;14.08;49.80;98185.50;10333896;28;20343;-36
2023/10/27 18:51:06;;;;;;;2.63;2.30;;;;;;;13.56;51.25;98164.22;10331059;28;20328;-35
2023/10/27 18:56:08;;;;;;;3.40;2.60;;;;;;;12.71;53.63;98100.41;10326971;28;20236;-35
2023/10/27 19:01:10;;;;;;;4.10;2.30;;;;;;;12.65;53.45;98138.13;10329213;28;20238;-35
2023/10/27 19:06:15;;;;;;;3.83;2.17;;;;;;;12.53;53.97;98152.38;10336300;28;20253;-35
2023/10/27 19:11:20;;;;;;;4.07;2.37;;;;;;;12.42;54.61;98130.91;10328619;28;20607;-35
2023/10/27 19:16:22;;;;;;;5.17;2.30;;;;;;;12.88;53.45;98115.75;10333153;28;20686;-35
2023/10/27 19:21:25;;;;;;;2.43;2.00;;;;;;;13.23;52.42;98114.75;10326046;28;20241;-35
2023/10/27 19:26:27;;;;;;;3.50;2.30;;;;;;;11.58;56.21;98161.47;10335334;28;20245;-35
2023/10/27 19:31:30;;;;;;;3.17;2.20;;;;;;;12.59;54.95;98035.25;10340724;28;20230;-35
2023/10/27 19:36:32;;;;;;;3.53;2.37;;;;;;;12.74;54.50;98021.28;10340625;28;20233;-35
2023/10/27 19:41:33;;;;;;;2.70;2.33;;;;;;;12.40;54.09;98088.25;10333698;28;20741;-35
2023/10/27 19:46:36;;;;;;;4.20;2.50;;;;;;;12.81;53.64;98051.47;10335583;28;20248;-35
2023/10/27 19:51:37;;;;;;;3.47;2.47;;;;;;;12.38;54.12;98130.56;10336989;28;20229;-36
2023/10/27 19:56:39;;;;;;;4.10;2.20;;;;;;;13.20;53.16;98022.06;10337633;28;20233;-35
2023/10/27 20:01:41;;;;;;;4.83;3.07;;;;;;;12.27;54.52;98120.69;10334457;28;20257;-35
2023/10/27 20:06:43;;;;;;;4.30;2.70;;;;;;;12.69;54.12;98080.25;10334936;28;20268;-35
2023/10/27 20:11:50;;;;;;;2.80;2.40;;;;;;;13.22;53.40;98041.41;10334863;28;20230;-35
2023/10/27 20:16:52;;;;;;;3.73;2.20;;;;;;;12.51;54.18;98153.69;10341788;28;20230;-36
2023/10/27 20:21:54;;;;;;;3.90;2.27;;;;;;;12.53;54.11;98173.03;10335929;28;20238;-35
2023/10/27 20:26:56;;;;;;;3.87;2.00;;;;;;;11.10;57.20;98254.19;10330310;28;20244;-35
2023/10/27 20:31:59;;;;;;;3.43;2.00;;;;;;;11.31;57.60;98190.50;10334812;28;20384;-35
2023/10/27 20:37:01;;;;;;;3.43;2.37;;;;;;;11.73;57.44;98113.63;10335759;28;20226;-35
2023/10/27 20:42:03;;;;;;;2.67;2.13;;;;;;;12.05;57.23;98056.97;10334170;28;20324;-35
2023/10/27 20:47:05;;;;;;;4.20;2.17;;;;;;;12.32;55.93;98085.94;10336101;28;20226;-35
2023/10/27 20:52:08;;;;;;;5.40;2.33;;;;;;;11.33;58.68;98126.81;10333549;28;20233;-35
2023/10/27 20:57:10;;;;;;;3.70;2.50;;;;;;;11.70;57.94;98119.44;10333045;28;20261;-35
2023/10/27 21:02:12;;;;;;;2.67;2.17;;;;;;;10.97;58.61;98231.09;10333543;28;20238;-35
2023/10/27 21:07:14;;;;;;;4.77;2.73;;;;;;;11.94;57.53;98066.63;10332123;28;20339;-35
2023/10/27 21:12:15;;;;;;;5.23;2.10;;;;;;;12.08;57.97;98026.16;10332622;28;20345;-35
2023/10/27 21:17:17;;;;;;;2.93;2.10;;;;;;;11.00;59.83;98155.72;10333168;28;20237;-35
2023/10/27 21:22:19;;;;;;;3.83;2.37;;;;;;;12.41;57.20;98027.38;10329744;28;20257;-35
2023/10/27 21:27:21;;;;;;;3.27;2.30;;;;;;;12.75;56.35;98036.31;10329642;28;20738;-35
2023/10/27 21:32:23;;;;;;;2.97;2.50;;;;;;;12.29;57.43;98073.81;10335643;28;20316;-35
2023/10/27 21:37:25;;;;;;;3.47;2.10;;;;;;;11.57;58.47;98128.47;10337253;28;20237;-35
2023/10/27 21:42:27;;;;;;;2.67;2.47;;;;;;;11.63;57.95;98217.88;10332702;28;20234;-35
2023/10/27 21:47:29;;;;;;;2.73;2.10;;;;;;;12.18;57.83;98056.69;10334456;28;20233;-36
2023/10/27 21:52:30;;;;;;;4.43;2.90;;;;;;;12.60;57.11;98036.84;10331027;28;20261;-36
2023/10/27 21:57:32;;;;;;;2.97;2.20;;;;;;;10.76;61.13;98130.69;10329403;28;20230;-35
2023/10/27 22:02:34;;;;;;;2.20;2.00;;;;;;;11.33;59.98;98110.75;10326629;28;20385;-35
2023/10/27 22:07:36;;;;;;;3.13;2.20;;;;;;;10.76;60.83;98184.19;10338180;28;20259;-35
2023/10/27 22:12:38;;;;;;;2.67;2.13;;;;;;;10.47;61.76;98148.31;10333340;28;20229;-35
2023/10/27 22:17:40;;;;;;;2.70;2.30;;;;;;;9.40;63.68;98262.22;10336807;28;20515;-35
2023/10/27 22:22:42;;;;;;;2.53;2.00;;;;;;;10.98;61.08;98064.09;10333059;28;20237;-35
2023/10/27 22:27:45;;;;;;;2.40;2.00;;;;;;;11.00;60.65;98083.44;10328790;28;20269;-35
2023/10/27 22:32:48;;;;;;;2.50;2.30;;;;;;;11.52;59.44;98063.25;10336637;28;20311;-35
2023/10/27 22:37:49;;;;;;;2.00;1.90;;;;;;;10.19;62.93;98122.09;10332648;28;20276;-35
2023/10/27 22:42:52;;;;;;;2.07;1.97;;;;;;;9.71;62.59;98257.94;10331679;28;20734;-41
2023/10/27 22:47:55;;;;;;;2.10;2.00;;;;;;;10.29;62.64;98119.72;10331408;28;20338;-38
2023/10/27 22:52:57;;;;;;;1.90;1.80;;;;;;;10.13;62.41;98169.25;10328277;28;20718;-41
2023/10/27 22:57:59;;;;;;;3.67;2.30;;;;;;;10.85;60.92;98081.19;10333337;28;20262;-40
2023/10/27 23:03:01;;;;;;;2.03;1.93;;;;;;;9.85;63.39;98117.09;10330305;28;20752;-37
2023/10/27 23:08:04;;;;;;;2.07;1.97;;;;;;;10.29;61.96;98159.81;10333651;28;20240;-40
2023/10/27 23:13:06;;;;;;;8.53;2.00;;;;;;;9.44;63.33;98275.97;10327165;28;20230;-37
2023/10/27 23:18:08;;;;;;;2.40;2.30;;;;;;;9.89;63.11;98155.69;10332511;28;20236;-39
2023/10/27 23:23:11;;;;;;;2.13;2.03;;;;;;;9.46;63.11;98281.91;10327081;28;20593;-40
2023/10/27 23:28:13;;;;;;;2.27;2.07;;;;;;;11.12;59.90;98136.19;10331907;28;20237;-40